sensor_id;sensor_type;location;lat;lon;timestamp;P1;durP1;ratioP1;P2;durP2;ratioP2
53801;SDS011;39709;53.334;6.534;2022-12-01T00:00:42;72.45;;;24.48;;
53801;SDS011;39709;53.334;6.534;2022-12-01T00:03:08;75.03;;;24.00;;
53801;SDS011;39709;53.334;6.534;2022-12-01T00:05:34;76.53;;;24.30;;
53801;SDS011;39709;53.334;6.534;2022-12-01T00:08:00;76.00;;;23.23;;
53801;SDS011;39709;53.334;6.534;2022-12-01T00:10:26;75.55;;;24.63;;
53801;SDS011;39709;53.334;6.534;2022-12-01T00:12:59;75.43;;;24.33;;
53801;SDS011;39709;53.334;6.534;2022-12-01T00:15:28;74.18;;;24.23;;
53801;SDS011;39709;53.334;6.534;2022-12-01T00:17:56;79.88;;;25.35;;
53801;SDS011;39709;53.334;6.534;2022-12-01T00:20:22;86.07;;;25.08;;
53801;SDS011;39709;53.334;6.534;2022-12-01T00:22:49;91.15;;;26.38;;
53801;SDS011;39709;53.334;6.534;2022-12-01T00:25:15;85.53;;;24.73;;
53801;SDS011;39709;53.334;6.534;2022-12-01T00:27:42;78.75;;;24.27;;
53801;SDS011;39709;53.334;6.534;2022-12-01T00:30:11;79.88;;;24.38;;
53801;SDS011;39709;53.334;6.534;2022-12-01T00:32:37;83.40;;;25.10;;
53801;SDS011;39709;53.334;6.534;2022-12-01T00:35:04;92.37;;;27.00;;
53801;SDS011;39709;53.334;6.534;2022-12-01T00:37:31;86.10;;;25.75;;
53801;SDS011;39709;53.334;6.534;2022-12-01T00:39:58;81.20;;;25.60;;
53801;SDS011;39709;53.334;6.534;2022-12-01T00:42:23;85.25;;;25.70;;
53801;SDS011;39709;53.334;6.534;2022-12-01T00:44:49;77.57;;;24.70;;
53801;SDS011;39709;53.334;6.534;2022-12-01T00:47:15;81.68;;;25.98;;
53801;SDS011;39709;53.334;6.534;2022-12-01T00:49:41;79.57;;;26.23;;
53801;SDS011;39709;53.334;6.534;2022-12-01T00:52:09;81.03;;;26.05;;
53801;SDS011;39709;53.334;6.534;2022-12-01T00:54:35;78.75;;;24.70;;
53801;SDS011;39709;53.334;6.534;2022-12-01T00:57:01;71.77;;;23.80;;
53801;SDS011;39709;53.334;6.534;2022-12-01T00:59:26;62.30;;;21.52;;
53801;SDS011;39709;53.334;6.534;2022-12-01T01:01:52;70.93;;;22.30;;
53801;SDS011;39709;53.334;6.534;2022-12-01T01:04:18;71.63;;;24.80;;
53801;SDS011;39709;53.334;6.534;2022-12-01T01:06:44;78.40;;;25.30;;
53801;SDS011;39709;53.334;6.534;2022-12-01T01:09:10;76.50;;;26.08;;
53801;SDS011;39709;53.334;6.534;2022-12-01T01:11:37;73.35;;;24.45;;
53801;SDS011;39709;53.334;6.534;2022-12-01T01:14:02;85.75;;;25.55;;
53801;SDS011;39709;53.334;6.534;2022-12-01T01:16:29;81.82;;;25.45;;
53801;SDS011;39709;53.334;6.534;2022-12-01T01:18:55;70.10;;;22.40;;
53801;SDS011;39709;53.334;6.534;2022-12-01T01:21:22;73.82;;;23.85;;
53801;SDS011;39709;53.334;6.534;2022-12-01T01:23:49;69.65;;;22.67;;
53801;SDS011;39709;53.334;6.534;2022-12-01T01:26:21;86.27;;;25.10;;
53801;SDS011;39709;53.334;6.534;2022-12-01T01:28:49;71.00;;;23.13;;
53801;SDS011;39709;53.334;6.534;2022-12-01T01:31:17;81.70;;;25.40;;
53801;SDS011;39709;53.334;6.534;2022-12-01T01:33:45;71.05;;;23.95;;
53801;SDS011;39709;53.334;6.534;2022-12-01T01:36:11;74.28;;;24.00;;
53801;SDS011;39709;53.334;6.534;2022-12-01T01:38:38;70.67;;;24.03;;
53801;SDS011;39709;53.334;6.534;2022-12-01T01:41:04;81.35;;;25.58;;
53801;SDS011;39709;53.334;6.534;2022-12-01T01:43:44;80.38;;;26.92;;
53801;SDS011;39709;53.334;6.534;2022-12-01T01:46:21;76.17;;;25.23;;
53801;SDS011;39709;53.334;6.534;2022-12-01T01:48:51;68.57;;;23.17;;
53801;SDS011;39709;53.334;6.534;2022-12-01T01:51:22;72.40;;;22.83;;
53801;SDS011;39709;53.334;6.534;2022-12-01T01:53:52;56.67;;;18.90;;
53801;SDS011;39709;53.334;6.534;2022-12-01T01:56:20;62.28;;;18.17;;
53801;SDS011;39709;53.334;6.534;2022-12-01T01:58:46;55.77;;;20.00;;
53801;SDS011;39709;53.334;6.534;2022-12-01T02:01:13;66.50;;;24.05;;
53801;SDS011;39709;53.334;6.534;2022-12-01T02:03:38;61.67;;;19.20;;
53801;SDS011;39709;53.334;6.534;2022-12-01T02:06:06;70.35;;;23.20;;
53801;SDS011;39709;53.334;6.534;2022-12-01T02:08:33;77.67;;;25.53;;
53801;SDS011;39709;53.334;6.534;2022-12-01T02:11:10;72.88;;;24.42;;
53801;SDS011;39709;53.334;6.534;2022-12-01T02:13:45;74.90;;;25.58;;
53801;SDS011;39709;53.334;6.534;2022-12-01T02:19:35;72.82;;;24.58;;
53801;SDS011;39709;53.334;6.534;2022-12-01T02:27:24;56.95;;;17.80;;
53801;SDS011;39709;53.334;6.534;2022-12-01T02:30:14;53.65;;;17.42;;
53801;SDS011;39709;53.334;6.534;2022-12-01T02:43:58;59.42;;;19.63;;
53801;SDS011;39709;53.334;6.534;2022-12-01T02:46:34;63.85;;;21.50;;
53801;SDS011;39709;53.334;6.534;2022-12-01T02:49:10;89.30;;;25.23;;
53801;SDS011;39709;53.334;6.534;2022-12-01T02:51:40;78.47;;;23.92;;
53801;SDS011;39709;53.334;6.534;2022-12-01T02:54:11;69.53;;;23.40;;
53801;SDS011;39709;53.334;6.534;2022-12-01T02:56:38;73.30;;;23.52;;
53801;SDS011;39709;53.334;6.534;2022-12-01T02:59:10;79.63;;;24.17;;
53801;SDS011;39709;53.334;6.534;2022-12-01T03:04:34;79.10;;;25.55;;
53801;SDS011;39709;53.334;6.534;2022-12-01T03:12:22;68.63;;;22.77;;
53801;SDS011;39709;53.334;6.534;2022-12-01T03:17:43;74.10;;;24.83;;
53801;SDS011;39709;53.334;6.534;2022-12-01T03:20:34;74.17;;;24.07;;
53801;SDS011;39709;53.334;6.534;2022-12-01T03:23:09;75.38;;;22.42;;
53801;SDS011;39709;53.334;6.534;2022-12-01T03:25:41;75.03;;;24.27;;
53801;SDS011;39709;53.334;6.534;2022-12-01T03:28:11;87.57;;;25.65;;
53801;SDS011;39709;53.334;6.534;2022-12-01T03:30:39;76.30;;;25.40;;
53801;SDS011;39709;53.334;6.534;2022-12-01T03:33:17;86.53;;;26.23;;
53801;SDS011;39709;53.334;6.534;2022-12-01T03:38:20;79.47;;;23.90;;
53801;SDS011;39709;53.334;6.534;2022-12-01T03:40:49;77.47;;;23.33;;
53801;SDS011;39709;53.334;6.534;2022-12-01T03:43:20;72.78;;;23.65;;
53801;SDS011;39709;53.334;6.534;2022-12-01T03:46:09;76.90;;;24.37;;
53801;SDS011;39709;53.334;6.534;2022-12-01T03:48:41;74.38;;;22.52;;
53801;SDS011;39709;53.334;6.534;2022-12-01T03:51:15;67.53;;;22.45;;
53801;SDS011;39709;53.334;6.534;2022-12-01T03:53:56;69.40;;;23.65;;
53801;SDS011;39709;53.334;6.534;2022-12-01T03:56:46;78.68;;;24.40;;
53801;SDS011;39709;53.334;6.534;2022-12-01T03:59:16;72.93;;;23.83;;
53801;SDS011;39709;53.334;6.534;2022-12-01T04:01:44;80.30;;;24.33;;
53801;SDS011;39709;53.334;6.534;2022-12-01T04:04:11;71.57;;;23.67;;
53801;SDS011;39709;53.334;6.534;2022-12-01T04:06:39;71.30;;;24.40;;
53801;SDS011;39709;53.334;6.534;2022-12-01T04:09:08;77.00;;;23.87;;
53801;SDS011;39709;53.334;6.534;2022-12-01T04:11:34;79.15;;;24.55;;
53801;SDS011;39709;53.334;6.534;2022-12-01T04:14:18;83.63;;;25.13;;
53801;SDS011;39709;53.334;6.534;2022-12-01T04:16:44;80.30;;;24.37;;
53801;SDS011;39709;53.334;6.534;2022-12-01T04:19:10;70.82;;;23.33;;
53801;SDS011;39709;53.334;6.534;2022-12-01T04:21:36;81.50;;;25.03;;
53801;SDS011;39709;53.334;6.534;2022-12-01T04:24:01;79.63;;;24.25;;
53801;SDS011;39709;53.334;6.534;2022-12-01T04:26:29;73.90;;;23.92;;
53801;SDS011;39709;53.334;6.534;2022-12-01T04:29:00;69.60;;;22.92;;
53801;SDS011;39709;53.334;6.534;2022-12-01T04:31:27;75.80;;;24.03;;
53801;SDS011;39709;53.334;6.534;2022-12-01T04:33:53;82.93;;;25.55;;
53801;SDS011;39709;53.334;6.534;2022-12-01T04:36:20;74.10;;;24.48;;
53801;SDS011;39709;53.334;6.534;2022-12-01T04:38:46;72.93;;;22.75;;
53801;SDS011;39709;53.334;6.534;2022-12-01T04:41:12;71.83;;;22.10;;
53801;SDS011;39709;53.334;6.534;2022-12-01T04:43:38;57.08;;;18.95;;
53801;SDS011;39709;53.334;6.534;2022-12-01T04:46:05;57.70;;;19.30;;
53801;SDS011;39709;53.334;6.534;2022-12-01T04:48:32;51.78;;;17.90;;
53801;SDS011;39709;53.334;6.534;2022-12-01T04:50:59;52.07;;;17.40;;
53801;SDS011;39709;53.334;6.534;2022-12-01T04:53:24;49.53;;;18.08;;
53801;SDS011;39709;53.334;6.534;2022-12-01T04:55:50;49.70;;;17.03;;
53801;SDS011;39709;53.334;6.534;2022-12-01T04:58:16;43.38;;;15.45;;
53801;SDS011;39709;53.334;6.534;2022-12-01T05:00:41;45.90;;;15.50;;
53801;SDS011;39709;53.334;6.534;2022-12-01T05:03:07;45.17;;;15.53;;
53801;SDS011;39709;53.334;6.534;2022-12-01T05:05:33;47.03;;;15.77;;
53801;SDS011;39709;53.334;6.534;2022-12-01T05:07:58;38.40;;;13.87;;
53801;SDS011;39709;53.334;6.534;2022-12-01T05:10:24;39.25;;;14.07;;
53801;SDS011;39709;53.334;6.534;2022-12-01T05:12:50;33.58;;;13.25;;
53801;SDS011;39709;53.334;6.534;2022-12-01T05:15:16;34.00;;;12.53;;
53801;SDS011;39709;53.334;6.534;2022-12-01T05:17:42;32.17;;;11.40;;
53801;SDS011;39709;53.334;6.534;2022-12-01T05:20:09;27.27;;;10.07;;
53801;SDS011;39709;53.334;6.534;2022-12-01T05:23:00;31.00;;;9.77;;
53801;SDS011;39709;53.334;6.534;2022-12-01T05:25:26;27.52;;;9.48;;
53801;SDS011;39709;53.334;6.534;2022-12-01T05:27:51;24.47;;;10.10;;
53801;SDS011;39709;53.334;6.534;2022-12-01T05:30:17;22.60;;;9.45;;
53801;SDS011;39709;53.334;6.534;2022-12-01T05:32:43;21.70;;;8.93;;
53801;SDS011;39709;53.334;6.534;2022-12-01T05:35:08;21.52;;;9.18;;
53801;SDS011;39709;53.334;6.534;2022-12-01T05:37:34;22.50;;;8.60;;
53801;SDS011;39709;53.334;6.534;2022-12-01T05:40:00;23.40;;;9.40;;
53801;SDS011;39709;53.334;6.534;2022-12-01T05:42:26;26.27;;;9.75;;
53801;SDS011;39709;53.334;6.534;2022-12-01T05:44:52;25.17;;;9.55;;
53801;SDS011;39709;53.334;6.534;2022-12-01T05:47:17;25.80;;;9.07;;
53801;SDS011;39709;53.334;6.534;2022-12-01T05:49:43;20.83;;;8.23;;
53801;SDS011;39709;53.334;6.534;2022-12-01T05:52:09;25.73;;;8.60;;
53801;SDS011;39709;53.334;6.534;2022-12-01T05:54:34;25.00;;;8.93;;
53801;SDS011;39709;53.334;6.534;2022-12-01T05:57:00;24.17;;;8.93;;
53801;SDS011;39709;53.334;6.534;2022-12-01T05:59:26;22.05;;;9.57;;
53801;SDS011;39709;53.334;6.534;2022-12-01T06:01:52;26.67;;;9.00;;
53801;SDS011;39709;53.334;6.534;2022-12-01T06:04:17;24.52;;;9.43;;
53801;SDS011;39709;53.334;6.534;2022-12-01T06:06:43;22.43;;;9.30;;
53801;SDS011;39709;53.334;6.534;2022-12-01T06:09:09;19.50;;;8.68;;
53801;SDS011;39709;53.334;6.534;2022-12-01T06:11:34;22.37;;;9.10;;
53801;SDS011;39709;53.334;6.534;2022-12-01T06:14:00;21.33;;;8.50;;
53801;SDS011;39709;53.334;6.534;2022-12-01T06:16:26;22.17;;;8.97;;
53801;SDS011;39709;53.334;6.534;2022-12-01T06:18:52;21.73;;;8.70;;
53801;SDS011;39709;53.334;6.534;2022-12-01T06:21:17;22.87;;;9.00;;
53801;SDS011;39709;53.334;6.534;2022-12-01T06:23:43;26.67;;;9.38;;
53801;SDS011;39709;53.334;6.534;2022-12-01T06:26:08;22.93;;;8.43;;
53801;SDS011;39709;53.334;6.534;2022-12-01T06:28:34;23.80;;;8.77;;
53801;SDS011;39709;53.334;6.534;2022-12-01T06:31:00;22.67;;;8.43;;
53801;SDS011;39709;53.334;6.534;2022-12-01T06:33:25;20.95;;;8.52;;
53801;SDS011;39709;53.334;6.534;2022-12-01T06:35:58;22.17;;;9.13;;
53801;SDS011;39709;53.334;6.534;2022-12-01T06:38:25;21.73;;;8.45;;
53801;SDS011;39709;53.334;6.534;2022-12-01T06:40:50;20.35;;;8.30;;
53801;SDS011;39709;53.334;6.534;2022-12-01T06:43:16;23.90;;;8.97;;
53801;SDS011;39709;53.334;6.534;2022-12-01T06:45:42;20.92;;;8.57;;
53801;SDS011;39709;53.334;6.534;2022-12-01T06:48:07;21.50;;;8.43;;
53801;SDS011;39709;53.334;6.534;2022-12-01T06:50:33;20.40;;;8.33;;
53801;SDS011;39709;53.334;6.534;2022-12-01T06:52:59;25.58;;;9.23;;
53801;SDS011;39709;53.334;6.534;2022-12-01T06:55:24;24.00;;;9.70;;
53801;SDS011;39709;53.334;6.534;2022-12-01T06:57:50;23.75;;;9.05;;
53801;SDS011;39709;53.334;6.534;2022-12-01T07:00:16;22.65;;;8.70;;
53801;SDS011;39709;53.334;6.534;2022-12-01T07:02:42;21.27;;;8.60;;
53801;SDS011;39709;53.334;6.534;2022-12-01T07:05:08;22.38;;;8.60;;
53801;SDS011;39709;53.334;6.534;2022-12-01T07:07:35;23.98;;;8.43;;
53801;SDS011;39709;53.334;6.534;2022-12-01T07:10:02;22.67;;;9.43;;
53801;SDS011;39709;53.334;6.534;2022-12-01T07:12:31;25.83;;;9.85;;
53801;SDS011;39709;53.334;6.534;2022-12-01T07:14:57;25.88;;;9.77;;
53801;SDS011;39709;53.334;6.534;2022-12-01T07:17:23;26.30;;;9.63;;
53801;SDS011;39709;53.334;6.534;2022-12-01T07:19:48;25.70;;;9.30;;
53801;SDS011;39709;53.334;6.534;2022-12-01T07:22:14;26.17;;;9.43;;
53801;SDS011;39709;53.334;6.534;2022-12-01T07:24:40;26.48;;;10.13;;
53801;SDS011;39709;53.334;6.534;2022-12-01T07:27:06;22.23;;;8.60;;
53801;SDS011;39709;53.334;6.534;2022-12-01T07:29:31;24.97;;;9.07;;
53801;SDS011;39709;53.334;6.534;2022-12-01T07:31:57;23.73;;;9.27;;
53801;SDS011;39709;53.334;6.534;2022-12-01T07:34:23;25.80;;;9.30;;
53801;SDS011;39709;53.334;6.534;2022-12-01T07:36:49;24.40;;;9.00;;
53801;SDS011;39709;53.334;6.534;2022-12-01T07:39:14;22.57;;;8.20;;
53801;SDS011;39709;53.334;6.534;2022-12-01T07:41:40;24.20;;;9.65;;
53801;SDS011;39709;53.334;6.534;2022-12-01T07:44:07;26.10;;;9.20;;
53801;SDS011;39709;53.334;6.534;2022-12-01T07:46:34;29.80;;;10.48;;
53801;SDS011;39709;53.334;6.534;2022-12-01T07:49:00;22.23;;;8.98;;
53801;SDS011;39709;53.334;6.534;2022-12-01T07:51:30;24.80;;;8.82;;
53801;SDS011;39709;53.334;6.534;2022-12-01T07:54:00;22.07;;;9.27;;
53801;SDS011;39709;53.334;6.534;2022-12-01T07:56:27;32.22;;;9.43;;
53801;SDS011;39709;53.334;6.534;2022-12-01T07:58:53;79.65;;;13.40;;
53801;SDS011;39709;53.334;6.534;2022-12-01T08:01:20;23.23;;;9.93;;
53801;SDS011;39709;53.334;6.534;2022-12-01T08:03:54;26.60;;;10.27;;
53801;SDS011;39709;53.334;6.534;2022-12-01T08:06:21;25.30;;;10.57;;
53801;SDS011;39709;53.334;6.534;2022-12-01T08:08:48;24.83;;;9.23;;
53801;SDS011;39709;53.334;6.534;2022-12-01T08:11:32;25.20;;;10.52;;
53801;SDS011;39709;53.334;6.534;2022-12-01T08:13:58;23.37;;;10.00;;
53801;SDS011;39709;53.334;6.534;2022-12-01T08:16:24;24.85;;;10.07;;
53801;SDS011;39709;53.334;6.534;2022-12-01T08:18:50;22.98;;;9.60;;
53801;SDS011;39709;53.334;6.534;2022-12-01T08:21:17;21.77;;;8.70;;
53801;SDS011;39709;53.334;6.534;2022-12-01T08:23:44;30.00;;;10.85;;
53801;SDS011;39709;53.334;6.534;2022-12-01T08:26:12;26.70;;;10.10;;
53801;SDS011;39709;53.334;6.534;2022-12-01T08:28:39;28.13;;;11.18;;
53801;SDS011;39709;53.334;6.534;2022-12-01T08:31:20;25.83;;;9.97;;
53801;SDS011;39709;53.334;6.534;2022-12-01T08:33:46;27.63;;;11.07;;
53801;SDS011;39709;53.334;6.534;2022-12-01T08:36:12;34.88;;;11.15;;
53801;SDS011;39709;53.334;6.534;2022-12-01T08:38:38;25.65;;;10.10;;
53801;SDS011;39709;53.334;6.534;2022-12-01T08:41:07;24.53;;;9.87;;
53801;SDS011;39709;53.334;6.534;2022-12-01T08:43:33;25.10;;;9.93;;
53801;SDS011;39709;53.334;6.534;2022-12-01T08:46:04;24.13;;;9.18;;
53801;SDS011;39709;53.334;6.534;2022-12-01T08:48:30;25.38;;;9.60;;
53801;SDS011;39709;53.334;6.534;2022-12-01T08:51:00;25.07;;;9.60;;
53801;SDS011;39709;53.334;6.534;2022-12-01T08:53:31;25.00;;;9.27;;
53801;SDS011;39709;53.334;6.534;2022-12-01T08:55:59;25.45;;;9.55;;
53801;SDS011;39709;53.334;6.534;2022-12-01T08:58:26;23.15;;;9.40;;
53801;SDS011;39709;53.334;6.534;2022-12-01T09:00:52;24.50;;;9.05;;
53801;SDS011;39709;53.334;6.534;2022-12-01T09:03:18;24.13;;;9.27;;
53801;SDS011;39709;53.334;6.534;2022-12-01T09:05:43;24.13;;;10.00;;
53801;SDS011;39709;53.334;6.534;2022-12-01T09:08:09;25.77;;;9.93;;
53801;SDS011;39709;53.334;6.534;2022-12-01T09:10:53;25.20;;;10.05;;
53801;SDS011;39709;53.334;6.534;2022-12-01T09:13:19;24.33;;;9.70;;
53801;SDS011;39709;53.334;6.534;2022-12-01T09:15:53;23.63;;;9.60;;
53801;SDS011;39709;53.334;6.534;2022-12-01T09:18:26;24.97;;;9.63;;
53801;SDS011;39709;53.334;6.534;2022-12-01T09:20:53;23.33;;;9.00;;
53801;SDS011;39709;53.334;6.534;2022-12-01T09:23:19;22.35;;;8.77;;
53801;SDS011;39709;53.334;6.534;2022-12-01T09:25:46;29.90;;;10.05;;
53801;SDS011;39709;53.334;6.534;2022-12-01T09:28:12;24.80;;;9.70;;
53801;SDS011;39709;53.334;6.534;2022-12-01T09:30:38;24.27;;;8.90;;
53801;SDS011;39709;53.334;6.534;2022-12-01T09:33:04;25.80;;;9.23;;
53801;SDS011;39709;53.334;6.534;2022-12-01T09:35:30;24.70;;;9.47;;
53801;SDS011;39709;53.334;6.534;2022-12-01T09:37:56;28.17;;;10.10;;
53801;SDS011;39709;53.334;6.534;2022-12-01T09:40:36;25.67;;;10.57;;
53801;SDS011;39709;53.334;6.534;2022-12-01T09:43:05;22.60;;;8.88;;
53801;SDS011;39709;53.334;6.534;2022-12-01T09:45:40;21.07;;;8.23;;
53801;SDS011;39709;53.334;6.534;2022-12-01T09:48:12;26.65;;;9.75;;
53801;SDS011;39709;53.334;6.534;2022-12-01T09:50:50;23.20;;;9.20;;
53801;SDS011;39709;53.334;6.534;2022-12-01T09:53:17;23.00;;;9.27;;
53801;SDS011;39709;53.334;6.534;2022-12-01T09:55:46;21.57;;;8.67;;
53801;SDS011;39709;53.334;6.534;2022-12-01T09:58:17;24.35;;;9.27;;
53801;SDS011;39709;53.334;6.534;2022-12-01T10:00:46;19.33;;;7.65;;
53801;SDS011;39709;53.334;6.534;2022-12-01T10:08:24;17.87;;;6.37;;
53801;SDS011;39709;53.334;6.534;2022-12-01T10:10:53;20.70;;;7.80;;
53801;SDS011;39709;53.334;6.534;2022-12-01T10:13:25;22.98;;;8.57;;
53801;SDS011;39709;53.334;6.534;2022-12-01T10:18:28;19.90;;;8.23;;
53801;SDS011;39709;53.334;6.534;2022-12-01T10:21:22;21.03;;;8.17;;
53801;SDS011;39709;53.334;6.534;2022-12-01T10:29:40;23.20;;;7.18;;
53801;SDS011;39709;53.334;6.534;2022-12-01T10:32:16;22.48;;;9.10;;
53801;SDS011;39709;53.334;6.534;2022-12-01T10:34:44;24.97;;;9.10;;
53801;SDS011;39709;53.334;6.534;2022-12-01T10:37:21;9.73;;;3.47;;
53801;SDS011;39709;53.334;6.534;2022-12-01T10:39:51;16.15;;;5.15;;
53801;SDS011;39709;53.334;6.534;2022-12-01T10:45:02;33.50;;;13.38;;
53801;SDS011;39709;53.334;6.534;2022-12-01T10:47:31;18.20;;;7.23;;
53801;SDS011;39709;53.334;6.534;2022-12-01T10:49:57;27.77;;;9.05;;
53801;SDS011;39709;53.334;6.534;2022-12-01T10:52:34;37.33;;;12.68;;
53801;SDS011;39709;53.334;6.534;2022-12-01T10:55:04;25.50;;;8.30;;
53801;SDS011;39709;53.334;6.534;2022-12-01T10:57:53;17.00;;;3.40;;
53801;SDS011;39709;53.334;6.534;2022-12-01T11:00:23;39.30;;;13.25;;
53801;SDS011;39709;53.334;6.534;2022-12-01T11:02:50;7.93;;;2.72;;
53801;SDS011;39709;53.334;6.534;2022-12-01T11:05:21;10.57;;;3.22;;
53801;SDS011;39709;53.334;6.534;2022-12-01T11:07:51;16.00;;;5.37;;
53801;SDS011;39709;53.334;6.534;2022-12-01T11:10:18;45.35;;;16.23;;
53801;SDS011;39709;53.334;6.534;2022-12-01T11:12:51;48.08;;;16.77;;
53801;SDS011;39709;53.334;6.534;2022-12-01T11:15:20;42.50;;;15.15;;
53801;SDS011;39709;53.334;6.534;2022-12-01T11:17:55;48.17;;;15.90;;
53801;SDS011;39709;53.334;6.534;2022-12-01T11:20:27;40.40;;;15.23;;
53801;SDS011;39709;53.334;6.534;2022-12-01T11:23:18;27.42;;;8.90;;
53801;SDS011;39709;53.334;6.534;2022-12-01T11:28:38;17.48;;;5.53;;
53801;SDS011;39709;53.334;6.534;2022-12-01T11:31:15;22.65;;;7.07;;
53801;SDS011;39709;53.334;6.534;2022-12-01T11:33:44;25.37;;;9.03;;
53801;SDS011;39709;53.334;6.534;2022-12-01T11:36:19;14.57;;;5.05;;
53801;SDS011;39709;53.334;6.534;2022-12-01T11:38:49;18.60;;;7.72;;
53801;SDS011;39709;53.334;6.534;2022-12-01T11:41:53;18.55;;;4.72;;
53801;SDS011;39709;53.334;6.534;2022-12-01T11:44:17;33.22;;;10.95;;
53801;SDS011;39709;53.334;6.534;2022-12-01T11:46:44;25.37;;;7.87;;
53801;SDS011;39709;53.334;6.534;2022-12-01T11:49:15;24.92;;;7.97;;
53801;SDS011;39709;53.334;6.534;2022-12-01T11:51:43;14.10;;;5.18;;
53801;SDS011;39709;53.334;6.534;2022-12-01T11:56:46;14.93;;;4.37;;
53801;SDS011;39709;53.334;6.534;2022-12-01T12:06:57;56.08;;;18.65;;
53801;SDS011;39709;53.334;6.534;2022-12-01T12:12:23;55.53;;;19.85;;
53801;SDS011;39709;53.334;6.534;2022-12-01T12:15:07;56.50;;;18.38;;
53801;SDS011;39709;53.334;6.534;2022-12-01T12:34:22;46.40;;;17.02;;
53801;SDS011;39709;53.334;6.534;2022-12-01T12:37:47;36.30;;;14.07;;
53801;SDS011;39709;53.334;6.534;2022-12-01T12:40:20;33.03;;;11.48;;
53801;SDS011;39709;53.334;6.534;2022-12-01T12:53:50;14.48;;;5.47;;
53801;SDS011;39709;53.334;6.534;2022-12-01T12:56:26;24.98;;;8.30;;
53801;SDS011;39709;53.334;6.534;2022-12-01T12:58:56;14.82;;;5.65;;
53801;SDS011;39709;53.334;6.534;2022-12-01T13:01:29;17.05;;;6.93;;
53801;SDS011;39709;53.334;6.534;2022-12-01T13:04:21;21.63;;;7.67;;
53801;SDS011;39709;53.334;6.534;2022-12-01T13:09:42;15.75;;;5.43;;
53801;SDS011;39709;53.334;6.534;2022-12-01T13:12:24;17.83;;;5.45;;
53801;SDS011;39709;53.334;6.534;2022-12-01T13:15:05;12.43;;;3.72;;
53801;SDS011;39709;53.334;6.534;2022-12-01T13:17:42;11.60;;;4.83;;
53801;SDS011;39709;53.334;6.534;2022-12-01T13:20:12;29.67;;;11.93;;
53801;SDS011;39709;53.334;6.534;2022-12-01T13:22:41;13.10;;;4.03;;
53801;SDS011;39709;53.334;6.534;2022-12-01T13:25:10;16.75;;;5.90;;
53801;SDS011;39709;53.334;6.534;2022-12-01T13:27:38;14.77;;;5.55;;
53801;SDS011;39709;53.334;6.534;2022-12-01T13:30:15;19.30;;;6.57;;
53801;SDS011;39709;53.334;6.534;2022-12-01T13:32:45;22.23;;;6.90;;
53801;SDS011;39709;53.334;6.534;2022-12-01T13:35:25;15.10;;;6.18;;
53801;SDS011;39709;53.334;6.534;2022-12-01T13:37:54;20.90;;;7.00;;
53801;SDS011;39709;53.334;6.534;2022-12-01T13:40:36;17.20;;;5.30;;
53801;SDS011;39709;53.334;6.534;2022-12-01T13:43:12;25.37;;;8.50;;
53801;SDS011;39709;53.334;6.534;2022-12-01T13:45:44;14.00;;;5.43;;
53801;SDS011;39709;53.334;6.534;2022-12-01T13:48:26;19.73;;;6.75;;
53801;SDS011;39709;53.334;6.534;2022-12-01T13:51:01;17.65;;;6.30;;
53801;SDS011;39709;53.334;6.534;2022-12-01T13:56:05;20.40;;;6.47;;
53801;SDS011;39709;53.334;6.534;2022-12-01T13:58:50;14.57;;;6.05;;
53801;SDS011;39709;53.334;6.534;2022-12-01T14:03:59;20.43;;;6.97;;
53801;SDS011;39709;53.334;6.534;2022-12-01T14:06:47;13.25;;;4.85;;
53801;SDS011;39709;53.334;6.534;2022-12-01T14:09:17;19.23;;;7.22;;
53801;SDS011;39709;53.334;6.534;2022-12-01T14:12:17;20.40;;;7.47;;
53801;SDS011;39709;53.334;6.534;2022-12-01T14:14:57;19.85;;;6.05;;
53801;SDS011;39709;53.334;6.534;2022-12-01T14:17:29;23.00;;;7.40;;
53801;SDS011;39709;53.334;6.534;2022-12-01T14:22:40;13.43;;;5.25;;
53801;SDS011;39709;53.334;6.534;2022-12-01T14:27:47;15.57;;;6.78;;
53801;SDS011;39709;53.334;6.534;2022-12-01T14:36:09;25.58;;;9.68;;
53801;SDS011;39709;53.334;6.534;2022-12-01T14:38:36;28.30;;;11.70;;
53801;SDS011;39709;53.334;6.534;2022-12-01T14:41:06;6.23;;;1.83;;
53801;SDS011;39709;53.334;6.534;2022-12-01T14:43:34;18.05;;;6.07;;
53801;SDS011;39709;53.334;6.534;2022-12-01T14:46:21;8.07;;;3.67;;
53801;SDS011;39709;53.334;6.534;2022-12-01T14:48:50;20.40;;;7.15;;
53801;SDS011;39709;53.334;6.534;2022-12-01T14:51:29;14.63;;;5.63;;
53801;SDS011;39709;53.334;6.534;2022-12-01T14:53:57;17.40;;;7.00;;
53801;SDS011;39709;53.334;6.534;2022-12-01T14:56:26;31.05;;;11.68;;
53801;SDS011;39709;53.334;6.534;2022-12-01T14:58:58;28.35;;;11.02;;
53801;SDS011;39709;53.334;6.534;2022-12-01T15:01:32;29.75;;;12.27;;
53801;SDS011;39709;53.334;6.534;2022-12-01T15:04:01;16.58;;;5.68;;
53801;SDS011;39709;53.334;6.534;2022-12-01T15:06:29;23.80;;;9.63;;
53801;SDS011;39709;53.334;6.534;2022-12-01T15:11:33;19.85;;;6.88;;
53801;SDS011;39709;53.334;6.534;2022-12-01T15:14:01;22.23;;;7.75;;
53801;SDS011;39709;53.334;6.534;2022-12-01T15:16:28;26.65;;;9.27;;
53801;SDS011;39709;53.334;6.534;2022-12-01T15:18:55;32.43;;;11.50;;
53801;SDS011;39709;53.334;6.534;2022-12-01T15:21:21;42.70;;;15.13;;
53801;SDS011;39709;53.334;6.534;2022-12-01T15:24:04;22.17;;;7.57;;
53801;SDS011;39709;53.334;6.534;2022-12-01T15:26:45;34.35;;;12.23;;
53801;SDS011;39709;53.334;6.534;2022-12-01T15:29:17;33.42;;;13.43;;
53801;SDS011;39709;53.334;6.534;2022-12-01T15:31:52;40.73;;;16.53;;
53801;SDS011;39709;53.334;6.534;2022-12-01T15:34:20;49.22;;;19.33;;
53801;SDS011;39709;53.334;6.534;2022-12-01T15:36:50;52.95;;;20.67;;
53801;SDS011;39709;53.334;6.534;2022-12-01T15:39:20;40.50;;;15.15;;
53801;SDS011;39709;53.334;6.534;2022-12-01T15:41:51;41.22;;;16.30;;
53801;SDS011;39709;53.334;6.534;2022-12-01T15:44:34;51.23;;;17.93;;
53801;SDS011;39709;53.334;6.534;2022-12-01T15:49:59;28.33;;;10.60;;
53801;SDS011;39709;53.334;6.534;2022-12-01T15:52:26;40.20;;;14.13;;
53801;SDS011;39709;53.334;6.534;2022-12-01T15:54:53;30.67;;;11.23;;
53801;SDS011;39709;53.334;6.534;2022-12-01T15:57:20;19.10;;;6.93;;
53801;SDS011;39709;53.334;6.534;2022-12-01T15:59:50;42.50;;;15.98;;
53801;SDS011;39709;53.334;6.534;2022-12-01T16:04:45;16.87;;;6.30;;
53801;SDS011;39709;53.334;6.534;2022-12-01T16:07:12;27.88;;;10.82;;
53801;SDS011;39709;53.334;6.534;2022-12-01T16:09:54;24.77;;;9.60;;
53801;SDS011;39709;53.334;6.534;2022-12-01T16:12:23;64.28;;;23.95;;
53801;SDS011;39709;53.334;6.534;2022-12-01T16:17:26;63.60;;;24.43;;
53801;SDS011;39709;53.334;6.534;2022-12-01T16:22:57;61.15;;;23.40;;
53801;SDS011;39709;53.334;6.534;2022-12-01T16:25:30;64.63;;;23.42;;
53801;SDS011;39709;53.334;6.534;2022-12-01T16:27:56;59.33;;;21.08;;
53801;SDS011;39709;53.334;6.534;2022-12-01T16:30:23;61.60;;;23.47;;
53801;SDS011;39709;53.334;6.534;2022-12-01T16:32:53;68.28;;;24.38;;
53801;SDS011;39709;53.334;6.534;2022-12-01T16:35:29;68.38;;;24.80;;
53801;SDS011;39709;53.334;6.534;2022-12-01T16:37:57;64.32;;;24.25;;
53801;SDS011;39709;53.334;6.534;2022-12-01T16:40:25;62.13;;;20.73;;
53801;SDS011;39709;53.334;6.534;2022-12-01T16:42:51;60.35;;;22.98;;
53801;SDS011;39709;53.334;6.534;2022-12-01T16:45:17;63.00;;;23.13;;
53801;SDS011;39709;53.334;6.534;2022-12-01T16:47:44;40.38;;;14.07;;
53801;SDS011;39709;53.334;6.534;2022-12-01T16:50:12;57.45;;;22.58;;